sensor_id;sensor_type;location;lat;lon;timestamp;P1;durP1;ratioP1;P2;durP2;ratioP2
11125;SDS011;5617;54.046;10.676;2023-02-08T00:00:55;42.07;;;22.90;;
11125;SDS011;5617;54.046;10.676;2023-02-08T00:03:03;46.13;;;24.30;;
11125;SDS011;5617;54.046;10.676;2023-02-08T00:05:11;42.40;;;24.17;;
11125;SDS011;5617;54.046;10.676;2023-02-08T00:07:19;43.40;;;23.27;;
11125;SDS011;5617;54.046;10.676;2023-02-08T00:09:26;41.30;;;22.03;;
11125;SDS011;5617;54.046;10.676;2023-02-08T00:11:35;43.07;;;23.63;;
11125;SDS011;5617;54.046;10.676;2023-02-08T00:13:43;42.23;;;22.13;;
11125;SDS011;5617;54.046;10.676;2023-02-08T00:15:51;40.72;;;22.20;;
11125;SDS011;5617;54.046;10.676;2023-02-08T00:18:00;36.37;;;21.10;;
11125;SDS011;5617;54.046;10.676;2023-02-08T00:20:09;39.17;;;20.77;;
11125;SDS011;5617;54.046;10.676;2023-02-08T00:22:17;34.23;;;19.77;;
11125;SDS011;5617;54.046;10.676;2023-02-08T00:24:25;32.13;;;19.43;;
11125;SDS011;5617;54.046;10.676;2023-02-08T00:26:33;32.63;;;19.83;;
11125;SDS011;5617;54.046;10.676;2023-02-08T00:28:43;31.50;;;18.63;;
11125;SDS011;5617;54.046;10.676;2023-02-08T00:30:50;30.83;;;18.23;;
11125;SDS011;5617;54.046;10.676;2023-02-08T00:32:58;34.30;;;18.80;;
11125;SDS011;5617;54.046;10.676;2023-02-08T00:35:07;32.10;;;19.80;;
11125;SDS011;5617;54.046;10.676;2023-02-08T00:37:15;30.90;;;18.03;;
11125;SDS011;5617;54.046;10.676;2023-02-08T00:39:23;30.70;;;18.90;;
11125;SDS011;5617;54.046;10.676;2023-02-08T00:41:30;30.07;;;17.73;;
11125;SDS011;5617;54.046;10.676;2023-02-08T00:43:38;30.70;;;17.80;;
11125;SDS011;5617;54.046;10.676;2023-02-08T00:45:47;30.83;;;17.97;;
11125;SDS011;5617;54.046;10.676;2023-02-08T00:48:01;34.38;;;19.52;;
11125;SDS011;5617;54.046;10.676;2023-02-08T00:50:09;29.90;;;18.53;;
11125;SDS011;5617;54.046;10.676;2023-02-08T00:52:17;31.07;;;18.33;;
11125;SDS011;5617;54.046;10.676;2023-02-08T00:54:25;26.83;;;16.80;;
11125;SDS011;5617;54.046;10.676;2023-02-08T00:56:33;26.53;;;16.53;;
11125;SDS011;5617;54.046;10.676;2023-02-08T00:58:41;28.33;;;18.00;;
11125;SDS011;5617;54.046;10.676;2023-02-08T01:00:51;31.17;;;17.47;;
11125;SDS011;5617;54.046;10.676;2023-02-08T01:02:59;32.03;;;18.50;;
11125;SDS011;5617;54.046;10.676;2023-02-08T01:05:06;30.93;;;17.30;;
11125;SDS011;5617;54.046;10.676;2023-02-08T01:07:14;30.77;;;18.23;;
11125;SDS011;5617;54.046;10.676;2023-02-08T01:09:21;30.57;;;18.10;;
11125;SDS011;5617;54.046;10.676;2023-02-08T01:11:29;29.83;;;17.90;;
11125;SDS011;5617;54.046;10.676;2023-02-08T01:13:37;30.83;;;18.70;;
11125;SDS011;5617;54.046;10.676;2023-02-08T01:15:45;31.60;;;17.37;;
11125;SDS011;5617;54.046;10.676;2023-02-08T01:17:54;32.23;;;18.47;;
11125;SDS011;5617;54.046;10.676;2023-02-08T01:20:02;30.07;;;17.43;;
11125;SDS011;5617;54.046;10.676;2023-02-08T01:22:10;29.33;;;17.20;;
11125;SDS011;5617;54.046;10.676;2023-02-08T01:24:18;30.53;;;16.67;;
11125;SDS011;5617;54.046;10.676;2023-02-08T01:26:25;28.53;;;16.93;;
11125;SDS011;5617;54.046;10.676;2023-02-08T01:28:33;30.03;;;17.97;;
11125;SDS011;5617;54.046;10.676;2023-02-08T01:30:41;28.70;;;17.57;;
11125;SDS011;5617;54.046;10.676;2023-02-08T01:32:49;29.77;;;17.80;;
11125;SDS011;5617;54.046;10.676;2023-02-08T01:34:58;27.57;;;17.30;;
11125;SDS011;5617;54.046;10.676;2023-02-08T01:37:05;28.80;;;17.67;;
11125;SDS011;5617;54.046;10.676;2023-02-08T01:39:13;26.00;;;17.25;;
11125;SDS011;5617;54.046;10.676;2023-02-08T01:41:21;27.70;;;16.85;;
11125;SDS011;5617;54.046;10.676;2023-02-08T01:43:31;28.00;;;17.90;;
11125;SDS011;5617;54.046;10.676;2023-02-08T01:45:40;28.63;;;17.17;;
11125;SDS011;5617;54.046;10.676;2023-02-08T01:47:49;28.03;;;16.90;;
11125;SDS011;5617;54.046;10.676;2023-02-08T01:50:01;28.57;;;16.67;;
11125;SDS011;5617;54.046;10.676;2023-02-08T01:52:11;26.63;;;16.17;;
11125;SDS011;5617;54.046;10.676;2023-02-08T01:54:23;27.38;;;16.60;;
11125;SDS011;5617;54.046;10.676;2023-02-08T01:56:34;24.75;;;15.57;;
11125;SDS011;5617;54.046;10.676;2023-02-08T01:58:45;26.83;;;16.20;;
11125;SDS011;5617;54.046;10.676;2023-02-08T02:00:58;25.02;;;15.48;;
11125;SDS011;5617;54.046;10.676;2023-02-08T02:03:06;26.60;;;15.67;;
11125;SDS011;5617;54.046;10.676;2023-02-08T02:05:15;24.07;;;15.83;;
11125;SDS011;5617;54.046;10.676;2023-02-08T02:07:25;24.17;;;15.13;;
11125;SDS011;5617;54.046;10.676;2023-02-08T02:09:37;25.30;;;15.23;;
11125;SDS011;5617;54.046;10.676;2023-02-08T02:11:48;25.17;;;14.80;;
11125;SDS011;5617;54.046;10.676;2023-02-08T02:13:57;24.60;;;14.70;;
11125;SDS011;5617;54.046;10.676;2023-02-08T02:16:06;27.25;;;15.38;;
11125;SDS011;5617;54.046;10.676;2023-02-08T02:18:15;24.93;;;14.73;;
11125;SDS011;5617;54.046;10.676;2023-02-08T02:20:32;25.23;;;14.73;;
11125;SDS011;5617;54.046;10.676;2023-02-08T02:22:56;23.60;;;14.63;;
11125;SDS011;5617;54.046;10.676;2023-02-08T02:25:34;24.20;;;14.20;;
11125;SDS011;5617;54.046;10.676;2023-02-08T02:28:03;25.53;;;14.50;;
11125;SDS011;5617;54.046;10.676;2023-02-08T02:30:31;22.30;;;14.30;;
11125;SDS011;5617;54.046;10.676;2023-02-08T02:33:20;26.13;;;15.30;;
11125;SDS011;5617;54.046;10.676;2023-02-08T02:35:43;24.42;;;15.10;;
11125;SDS011;5617;54.046;10.676;2023-02-08T02:37:57;22.83;;;15.03;;
11125;SDS011;5617;54.046;10.676;2023-02-08T02:40:15;21.87;;;14.33;;
11125;SDS011;5617;54.046;10.676;2023-02-08T02:42:31;22.73;;;14.68;;
11125;SDS011;5617;54.046;10.676;2023-02-08T02:45:05;24.65;;;14.63;;
11125;SDS011;5617;54.046;10.676;2023-02-08T02:47:23;25.48;;;14.10;;
11125;SDS011;5617;54.046;10.676;2023-02-08T02:49:41;24.38;;;15.23;;
11125;SDS011;5617;54.046;10.676;2023-02-08T02:51:55;23.77;;;14.88;;
11125;SDS011;5617;54.046;10.676;2023-02-08T02:54:06;25.52;;;14.88;;
11125;SDS011;5617;54.046;10.676;2023-02-08T02:56:18;22.35;;;13.90;;
11125;SDS011;5617;54.046;10.676;2023-02-08T02:58:29;21.90;;;14.50;;
11125;SDS011;5617;54.046;10.676;2023-02-08T03:00:37;22.63;;;14.77;;
11125;SDS011;5617;54.046;10.676;2023-02-08T03:02:45;23.08;;;14.30;;
11125;SDS011;5617;54.046;10.676;2023-02-08T03:04:54;23.80;;;14.47;;
11125;SDS011;5617;54.046;10.676;2023-02-08T03:07:04;23.40;;;14.47;;
11125;SDS011;5617;54.046;10.676;2023-02-08T03:09:21;24.08;;;13.75;;
11125;SDS011;5617;54.046;10.676;2023-02-08T03:11:37;24.58;;;14.32;;
11125;SDS011;5617;54.046;10.676;2023-02-08T03:16:41;22.00;;;13.93;;
11125;SDS011;5617;54.046;10.676;2023-02-08T03:19:05;22.92;;;14.20;;
11125;SDS011;5617;54.046;10.676;2023-02-08T03:21:17;22.45;;;14.07;;
11125;SDS011;5617;54.046;10.676;2023-02-08T03:23:35;21.88;;;12.98;;
11125;SDS011;5617;54.046;10.676;2023-02-08T03:25:49;20.42;;;13.73;;
11125;SDS011;5617;54.046;10.676;2023-02-08T03:28:00;19.38;;;13.18;;
11125;SDS011;5617;54.046;10.676;2023-02-08T03:30:14;21.55;;;12.88;;
11125;SDS011;5617;54.046;10.676;2023-02-08T03:32:25;20.77;;;13.55;;
11125;SDS011;5617;54.046;10.676;2023-02-08T03:34:42;20.98;;;12.93;;
11125;SDS011;5617;54.046;10.676;2023-02-08T03:36:56;20.15;;;12.43;;
11125;SDS011;5617;54.046;10.676;2023-02-08T03:39:09;22.30;;;13.80;;
11125;SDS011;5617;54.046;10.676;2023-02-08T03:41:23;20.88;;;13.50;;
11125;SDS011;5617;54.046;10.676;2023-02-08T03:43:35;22.15;;;13.88;;
11125;SDS011;5617;54.046;10.676;2023-02-08T03:45:46;19.58;;;12.75;;
11125;SDS011;5617;54.046;10.676;2023-02-08T03:47:59;20.50;;;13.30;;
11125;SDS011;5617;54.046;10.676;2023-02-08T03:50:11;21.92;;;14.00;;
11125;SDS011;5617;54.046;10.676;2023-02-08T03:52:23;21.58;;;13.52;;
11125;SDS011;5617;54.046;10.676;2023-02-08T03:54:33;20.50;;;13.10;;
11125;SDS011;5617;54.046;10.676;2023-02-08T03:56:47;19.83;;;12.90;;
11125;SDS011;5617;54.046;10.676;2023-02-08T03:59:00;20.00;;;12.75;;
11125;SDS011;5617;54.046;10.676;2023-02-08T04:01:12;21.50;;;13.70;;
11125;SDS011;5617;54.046;10.676;2023-02-08T04:03:24;19.70;;;13.30;;
11125;SDS011;5617;54.046;10.676;2023-02-08T04:05:33;19.40;;;12.63;;
11125;SDS011;5617;54.046;10.676;2023-02-08T04:07:43;20.48;;;13.40;;
11125;SDS011;5617;54.046;10.676;2023-02-08T04:09:51;20.87;;;13.37;;
11125;SDS011;5617;54.046;10.676;2023-02-08T04:11:58;20.00;;;13.15;;
11125;SDS011;5617;54.046;10.676;2023-02-08T04:14:06;18.77;;;12.40;;
11125;SDS011;5617;54.046;10.676;2023-02-08T04:16:13;20.83;;;12.63;;
11125;SDS011;5617;54.046;10.676;2023-02-08T04:18:21;19.57;;;12.73;;
11125;SDS011;5617;54.046;10.676;2023-02-08T04:20:29;20.13;;;13.05;;
11125;SDS011;5617;54.046;10.676;2023-02-08T04:22:36;20.40;;;12.40;;
11125;SDS011;5617;54.046;10.676;2023-02-08T04:24:45;19.02;;;12.20;;
11125;SDS011;5617;54.046;10.676;2023-02-08T04:26:53;20.00;;;12.57;;
11125;SDS011;5617;54.046;10.676;2023-02-08T04:29:00;17.73;;;12.07;;
11125;SDS011;5617;54.046;10.676;2023-02-08T04:31:08;18.27;;;12.80;;
11125;SDS011;5617;54.046;10.676;2023-02-08T04:33:15;19.88;;;11.85;;
11125;SDS011;5617;54.046;10.676;2023-02-08T04:35:23;21.83;;;12.65;;
11125;SDS011;5617;54.046;10.676;2023-02-08T04:37:31;18.90;;;12.15;;
11125;SDS011;5617;54.046;10.676;2023-02-08T04:39:39;22.45;;;13.27;;
11125;SDS011;5617;54.046;10.676;2023-02-08T04:41:48;19.25;;;12.35;;
11125;SDS011;5617;54.046;10.676;2023-02-08T04:43:55;20.43;;;12.70;;
11125;SDS011;5617;54.046;10.676;2023-02-08T04:46:04;19.20;;;11.85;;
11125;SDS011;5617;54.046;10.676;2023-02-08T04:48:12;17.20;;;11.57;;
11125;SDS011;5617;54.046;10.676;2023-02-08T04:50:19;18.95;;;12.27;;
11125;SDS011;5617;54.046;10.676;2023-02-08T04:52:27;19.47;;;12.27;;
11125;SDS011;5617;54.046;10.676;2023-02-08T04:54:34;17.48;;;12.40;;
11125;SDS011;5617;54.046;10.676;2023-02-08T04:56:42;18.67;;;12.43;;
11125;SDS011;5617;54.046;10.676;2023-02-08T04:58:51;19.02;;;11.98;;
11125;SDS011;5617;54.046;10.676;2023-02-08T05:00:59;18.88;;;12.73;;
11125;SDS011;5617;54.046;10.676;2023-02-08T05:03:09;19.17;;;12.13;;
11125;SDS011;5617;54.046;10.676;2023-02-08T05:05:17;18.02;;;11.80;;
11125;SDS011;5617;54.046;10.676;2023-02-08T05:07:24;17.27;;;12.38;;
11125;SDS011;5617;54.046;10.676;2023-02-08T05:09:32;18.42;;;12.05;;
11125;SDS011;5617;54.046;10.676;2023-02-08T05:11:40;19.10;;;12.23;;
11125;SDS011;5617;54.046;10.676;2023-02-08T05:13:47;19.40;;;12.45;;
11125;SDS011;5617;54.046;10.676;2023-02-08T05:15:57;16.70;;;11.40;;
11125;SDS011;5617;54.046;10.676;2023-02-08T05:18:05;18.13;;;12.20;;
11125;SDS011;5617;54.046;10.676;2023-02-08T05:20:12;19.20;;;12.13;;
11125;SDS011;5617;54.046;10.676;2023-02-08T05:22:20;16.97;;;11.87;;
11125;SDS011;5617;54.046;10.676;2023-02-08T05:24:27;17.67;;;12.10;;
11125;SDS011;5617;54.046;10.676;2023-02-08T05:26:35;19.00;;;12.33;;
11125;SDS011;5617;54.046;10.676;2023-02-08T05:28:43;18.97;;;11.67;;
11125;SDS011;5617;54.046;10.676;2023-02-08T05:30:51;17.20;;;11.30;;
11125;SDS011;5617;54.046;10.676;2023-02-08T05:33:00;21.87;;;12.63;;
11125;SDS011;5617;54.046;10.676;2023-02-08T05:35:07;20.80;;;12.85;;
11125;SDS011;5617;54.046;10.676;2023-02-08T05:37:15;18.57;;;12.00;;
11125;SDS011;5617;54.046;10.676;2023-02-08T05:39:22;17.80;;;11.93;;
11125;SDS011;5617;54.046;10.676;2023-02-08T05:41:30;18.23;;;12.15;;
11125;SDS011;5617;54.046;10.676;2023-02-08T05:43:38;16.90;;;11.70;;
11125;SDS011;5617;54.046;10.676;2023-02-08T05:45:48;20.45;;;12.15;;
11125;SDS011;5617;54.046;10.676;2023-02-08T05:47:56;20.23;;;12.52;;
11125;SDS011;5617;54.046;10.676;2023-02-08T05:50:05;16.88;;;11.55;;
11125;SDS011;5617;54.046;10.676;2023-02-08T05:52:12;17.60;;;11.90;;
11125;SDS011;5617;54.046;10.676;2023-02-08T05:54:20;18.75;;;12.45;;
11125;SDS011;5617;54.046;10.676;2023-02-08T05:56:28;22.30;;;12.70;;
11125;SDS011;5617;54.046;10.676;2023-02-08T05:58:35;17.60;;;11.52;;
11125;SDS011;5617;54.046;10.676;2023-02-08T06:00:43;17.50;;;11.57;;
11125;SDS011;5617;54.046;10.676;2023-02-08T06:02:51;16.98;;;11.55;;
11125;SDS011;5617;54.046;10.676;2023-02-08T06:04:58;18.93;;;12.40;;
11125;SDS011;5617;54.046;10.676;2023-02-08T06:07:07;21.17;;;13.07;;
11125;SDS011;5617;54.046;10.676;2023-02-08T06:09:15;18.27;;;11.80;;
11125;SDS011;5617;54.046;10.676;2023-02-08T06:11:22;21.70;;;11.80;;
11125;SDS011;5617;54.046;10.676;2023-02-08T06:13:30;19.50;;;12.05;;
11125;SDS011;5617;54.046;10.676;2023-02-08T06:15:37;18.05;;;11.85;;
11125;SDS011;5617;54.046;10.676;2023-02-08T06:17:45;19.10;;;12.27;;
11125;SDS011;5617;54.046;10.676;2023-02-08T06:19:52;20.00;;;12.32;;
11125;SDS011;5617;54.046;10.676;2023-02-08T06:22:00;18.13;;;11.68;;
11125;SDS011;5617;54.046;10.676;2023-02-08T06:24:09;19.60;;;11.85;;
11125;SDS011;5617;54.046;10.676;2023-02-08T06:26:18;18.17;;;12.00;;
11125;SDS011;5617;54.046;10.676;2023-02-08T06:28:26;19.57;;;12.00;;
11125;SDS011;5617;54.046;10.676;2023-02-08T06:30:33;19.55;;;11.90;;
11125;SDS011;5617;54.046;10.676;2023-02-08T06:32:41;19.63;;;12.43;;
11125;SDS011;5617;54.046;10.676;2023-02-08T06:34:48;18.90;;;12.53;;
11125;SDS011;5617;54.046;10.676;2023-02-08T06:36:56;18.73;;;11.82;;
11125;SDS011;5617;54.046;10.676;2023-02-08T06:39:05;20.50;;;13.02;;
11125;SDS011;5617;54.046;10.676;2023-02-08T06:41:14;20.42;;;12.18;;
11125;SDS011;5617;54.046;10.676;2023-02-08T06:43:22;18.35;;;11.95;;
11125;SDS011;5617;54.046;10.676;2023-02-08T06:45:29;22.02;;;12.80;;
11125;SDS011;5617;54.046;10.676;2023-02-08T06:47:37;22.58;;;13.40;;
11125;SDS011;5617;54.046;10.676;2023-02-08T06:49:44;21.15;;;13.73;;
11125;SDS011;5617;54.046;10.676;2023-02-08T06:51:52;19.58;;;12.13;;
11125;SDS011;5617;54.046;10.676;2023-02-08T06:53:59;22.65;;;12.50;;
11125;SDS011;5617;54.046;10.676;2023-02-08T06:56:07;18.55;;;12.05;;
11125;SDS011;5617;54.046;10.676;2023-02-08T06:58:16;19.75;;;12.48;;
11125;SDS011;5617;54.046;10.676;2023-02-08T07:00:24;19.70;;;12.45;;
11125;SDS011;5617;54.046;10.676;2023-02-08T07:02:32;19.33;;;12.38;;
11125;SDS011;5617;54.046;10.676;2023-02-08T07:04:40;20.95;;;13.70;;
11125;SDS011;5617;54.046;10.676;2023-02-08T07:06:47;17.60;;;12.05;;
11125;SDS011;5617;54.046;10.676;2023-02-08T07:08:56;20.25;;;13.23;;
11125;SDS011;5617;54.046;10.676;2023-02-08T07:11:07;37.92;;;19.40;;
11125;SDS011;5617;54.046;10.676;2023-02-08T07:13:16;35.55;;;18.15;;
11125;SDS011;5617;54.046;10.676;2023-02-08T07:15:24;28.30;;;16.13;;
11125;SDS011;5617;54.046;10.676;2023-02-08T07:17:32;28.20;;;15.95;;
11125;SDS011;5617;54.046;10.676;2023-02-08T07:19:39;27.48;;;16.80;;
11125;SDS011;5617;54.046;10.676;2023-02-08T07:21:47;27.73;;;17.52;;
11125;SDS011;5617;54.046;10.676;2023-02-08T07:23:54;28.57;;;16.77;;
11125;SDS011;5617;54.046;10.676;2023-02-08T07:26:03;29.47;;;16.60;;
11125;SDS011;5617;54.046;10.676;2023-02-08T07:28:11;27.83;;;17.42;;
11125;SDS011;5617;54.046;10.676;2023-02-08T07:30:20;35.67;;;21.92;;
11125;SDS011;5617;54.046;10.676;2023-02-08T07:32:28;39.33;;;23.67;;
11125;SDS011;5617;54.046;10.676;2023-02-08T07:34:36;33.60;;;21.10;;
11125;SDS011;5617;54.046;10.676;2023-02-08T07:36:45;34.72;;;20.65;;
11125;SDS011;5617;54.046;10.676;2023-02-08T07:38:53;33.13;;;19.23;;
11125;SDS011;5617;54.046;10.676;2023-02-08T07:41:01;33.75;;;20.40;;
11125;SDS011;5617;54.046;10.676;2023-02-08T07:43:09;32.53;;;19.83;;
11125;SDS011;5617;54.046;10.676;2023-02-08T07:45:17;32.75;;;19.85;;
11125;SDS011;5617;54.046;10.676;2023-02-08T07:47:26;32.40;;;19.27;;
11125;SDS011;5617;54.046;10.676;2023-02-08T07:49:34;30.30;;;19.47;;
11125;SDS011;5617;54.046;10.676;2023-02-08T07:51:41;33.55;;;21.20;;
11125;SDS011;5617;54.046;10.676;2023-02-08T07:53:49;34.35;;;20.98;;
11125;SDS011;5617;54.046;10.676;2023-02-08T07:55:57;35.45;;;21.45;;
11125;SDS011;5617;54.046;10.676;2023-02-08T07:58:05;30.80;;;19.17;;
11125;SDS011;5617;54.046;10.676;2023-02-08T08:00:13;29.65;;;18.15;;
11125;SDS011;5617;54.046;10.676;2023-02-08T08:02:22;30.25;;;18.42;;
11125;SDS011;5617;54.046;10.676;2023-02-08T08:04:31;31.27;;;18.95;;
11125;SDS011;5617;54.046;10.676;2023-02-08T08:06:39;32.77;;;19.20;;
11125;SDS011;5617;54.046;10.676;2023-02-08T08:08:47;28.53;;;17.17;;
11125;SDS011;5617;54.046;10.676;2023-02-08T08:10:55;27.80;;;16.10;;
11125;SDS011;5617;54.046;10.676;2023-02-08T08:13:03;29.83;;;15.17;;
11125;SDS011;5617;54.046;10.676;2023-02-08T08:15:10;26.13;;;15.67;;
11125;SDS011;5617;54.046;10.676;2023-02-08T08:17:18;26.02;;;16.13;;
11125;SDS011;5617;54.046;10.676;2023-02-08T08:19:26;27.63;;;15.07;;
11125;SDS011;5617;54.046;10.676;2023-02-08T08:21:37;28.57;;;16.73;;
11125;SDS011;5617;54.046;10.676;2023-02-08T08:23:45;25.47;;;15.80;;
11125;SDS011;5617;54.046;10.676;2023-02-08T08:25:52;24.90;;;14.93;;
11125;SDS011;5617;54.046;10.676;2023-02-08T08:28:00;25.70;;;16.00;;
11125;SDS011;5617;54.046;10.676;2023-02-08T08:30:08;29.30;;;16.57;;
11125;SDS011;5617;54.046;10.676;2023-02-08T08:32:18;26.90;;;16.20;;
11125;SDS011;5617;54.046;10.676;2023-02-08T08:34:26;28.30;;;16.03;;
11125;SDS011;5617;54.046;10.676;2023-02-08T08:36:36;28.20;;;16.17;;
11125;SDS011;5617;54.046;10.676;2023-02-08T08:38:44;27.30;;;16.10;;
11125;SDS011;5617;54.046;10.676;2023-02-08T08:40:52;28.27;;;17.47;;
11125;SDS011;5617;54.046;10.676;2023-02-08T08:43:00;29.40;;;17.97;;
11125;SDS011;5617;54.046;10.676;2023-02-08T08:45:08;29.30;;;18.03;;
11125;SDS011;5617;54.046;10.676;2023-02-08T08:47:17;28.70;;;17.93;;
11125;SDS011;5617;54.046;10.676;2023-02-08T08:49:25;31.20;;;17.63;;
11125;SDS011;5617;54.046;10.676;2023-02-08T08:51:34;30.93;;;17.97;;
11125;SDS011;5617;54.046;10.676;2023-02-08T08:53:43;32.87;;;18.83;;
11125;SDS011;5617;54.046;10.676;2023-02-08T08:55:51;29.60;;;17.53;;
11125;SDS011;5617;54.046;10.676;2023-02-08T08:57:59;30.83;;;18.13;;
11125;SDS011;5617;54.046;10.676;2023-02-08T09:00:07;30.67;;;18.00;;
11125;SDS011;5617;54.046;10.676;2023-02-08T09:02:15;31.03;;;17.90;;
11125;SDS011;5617;54.046;10.676;2023-02-08T09:04:23;31.93;;;18.03;;
11125;SDS011;5617;54.046;10.676;2023-02-08T09:06:31;28.03;;;17.70;;
11125;SDS011;5617;54.046;10.676;2023-02-08T09:08:40;29.37;;;17.17;;
11125;SDS011;5617;54.046;10.676;2023-02-08T09:10:51;28.07;;;17.17;;
11125;SDS011;5617;54.046;10.676;2023-02-08T09:12:59;27.87;;;16.70;;
11125;SDS011;5617;54.046;10.676;2023-02-08T09:15:06;29.00;;;17.47;;
11125;SDS011;5617;54.046;10.676;2023-02-08T09:17:15;27.73;;;16.87;;
11125;SDS011;5617;54.046;10.676;2023-02-08T09:19:22;31.23;;;17.20;;
11125;SDS011;5617;54.046;10.676;2023-02-08T09:21:30;28.20;;;15.57;;
11125;SDS011;5617;54.046;10.676;2023-02-08T09:23:38;29.23;;;17.30;;
11125;SDS011;5617;54.046;10.676;2023-02-08T09:25:46;29.30;;;18.40;;
11125;SDS011;5617;54.046;10.676;2023-02-08T09:27:55;27.97;;;16.53;;
11125;SDS011;5617;54.046;10.676;2023-02-08T09:30:04;26.43;;;17.00;;
11125;SDS011;5617;54.046;10.676;2023-02-08T09:32:12;28.63;;;17.37;;
11125;SDS011;5617;54.046;10.676;2023-02-08T09:34:19;27.13;;;16.73;;
11125;SDS011;5617;54.046;10.676;2023-02-08T09:36:30;25.63;;;16.47;;
11125;SDS011;5617;54.046;10.676;2023-02-08T09:38:40;29.87;;;17.27;;
11125;SDS011;5617;54.046;10.676;2023-02-08T09:40:52;24.33;;;15.70;;
11125;SDS011;5617;54.046;10.676;2023-02-08T09:43:10;26.63;;;16.77;;
11125;SDS011;5617;54.046;10.676;2023-02-08T09:45:26;25.50;;;16.33;;
11125;SDS011;5617;54.046;10.676;2023-02-08T09:47:42;24.47;;;15.67;;
11125;SDS011;5617;54.046;10.676;2023-02-08T09:49:56;24.40;;;15.73;;
11125;SDS011;5617;54.046;10.676;2023-02-08T09:52:09;25.40;;;15.20;;
11125;SDS011;5617;54.046;10.676;2023-02-08T09:54:19;24.83;;;15.60;;
11125;SDS011;5617;54.046;10.676;2023-02-08T09:56:33;23.97;;;14.17;;
11125;SDS011;5617;54.046;10.676;2023-02-08T09:58:47;25.97;;;16.03;;
11125;SDS011;5617;54.046;10.676;2023-02-08T10:00:58;26.27;;;16.23;;
11125;SDS011;5617;54.046;10.676;2023-02-08T10:03:07;24.30;;;15.47;;
11125;SDS011;5617;54.046;10.676;2023-02-08T10:05:28;24.40;;;15.93;;
11125;SDS011;5617;54.046;10.676;2023-02-08T10:07:37;24.00;;;15.33;;
11125;SDS011;5617;54.046;10.676;2023-02-08T10:09:47;23.90;;;14.70;;
11125;SDS011;5617;54.046;10.676;2023-02-08T10:11:59;22.20;;;14.37;;
11125;SDS011;5617;54.046;10.676;2023-02-08T10:14:28;22.57;;;15.17;;
11125;SDS011;5617;54.046;10.676;2023-02-08T10:16:49;22.50;;;13.70;;
11125;SDS011;5617;54.046;10.676;2023-02-08T10:19:07;22.97;;;13.50;;
11125;SDS011;5617;54.046;10.676;2023-02-08T10:21:29;19.97;;;12.83;;
11125;SDS011;5617;54.046;10.676;2023-02-08T10:23:49;21.80;;;14.33;;
11125;SDS011;5617;54.046;10.676;2023-02-08T10:26:11;21.57;;;13.83;;
11125;SDS011;5617;54.046;10.676;2023-02-08T10:28:25;20.90;;;13.43;;
11125;SDS011;5617;54.046;10.676;2023-02-08T10:30:46;19.87;;;13.50;;
11125;SDS011;5617;54.046;10.676;2023-02-08T10:32:59;19.33;;;13.00;;
11125;SDS011;5617;54.046;10.676;2023-02-08T10:35:09;19.77;;;13.30;;
11125;SDS011;5617;54.046;10.676;2023-02-08T10:37:20;20.90;;;13.07;;
11125;SDS011;5617;54.046;10.676;2023-02-08T10:39:33;21.23;;;12.57;;
11125;SDS011;5617;54.046;10.676;2023-02-08T10:41:43;18.30;;;12.30;;
11125;SDS011;5617;54.046;10.676;2023-02-08T10:43:52;22.17;;;12.73;;
11125;SDS011;5617;54.046;10.676;2023-02-08T10:46:10;20.67;;;13.17;;
11125;SDS011;5617;54.046;10.676;2023-02-08T10:48:28;19.13;;;12.10;;
11125;SDS011;5617;54.046;10.676;2023-02-08T10:50:44;18.70;;;11.97;;
11125;SDS011;5617;54.046;10.676;2023-02-08T10:52:52;18.10;;;11.87;;
11125;SDS011;5617;54.046;10.676;2023-02-08T10:55:00;19.27;;;12.23;;
11125;SDS011;5617;54.046;10.676;2023-02-08T10:57:09;19.57;;;12.00;;
11125;SDS011;5617;54.046;10.676;2023-02-08T10:59:20;18.43;;;11.13;;
11125;SDS011;5617;54.046;10.676;2023-02-08T11:01:32;16.67;;;10.93;;
11125;SDS011;5617;54.046;10.676;2023-02-08T11:03:58;16.37;;;10.47;;
11125;SDS011;5617;54.046;10.676;2023-02-08T11:06:13;16.40;;;9.47;;
11125;SDS011;5617;54.046;10.676;2023-02-08T11:08:32;16.47;;;9.20;;
11125;SDS011;5617;54.046;10.676;2023-02-08T11:10:59;16.70;;;9.63;;
11125;SDS011;5617;54.046;10.676;2023-02-08T11:13:14;14.40;;;9.27;;
11125;SDS011;5617;54.046;10.676;2023-02-08T11:15:25;15.17;;;9.10;;
11125;SDS011;5617;54.046;10.676;2023-02-08T11:17:36;14.00;;;9.00;;
11125;SDS011;5617;54.046;10.676;2023-02-08T11:19:44;11.67;;;7.73;;
11125;SDS011;5617;54.046;10.676;2023-02-08T11:21:53;13.53;;;8.63;;
11125;SDS011;5617;54.046;10.676;2023-02-08T11:24:03;13.17;;;7.97;;
11125;SDS011;5617;54.046;10.676;2023-02-08T11:26:33;13.57;;;8.27;;
11125;SDS011;5617;54.046;10.676;2023-02-08T11:28:43;11.40;;;7.20;;
11125;SDS011;5617;54.046;10.676;2023-02-08T11:31:08;11.67;;;8.00;;
11125;SDS011;5617;54.046;10.676;2023-02-08T11:33:23;12.13;;;7.90;;
11125;SDS011;5617;54.046;10.676;2023-02-08T11:35:32;12.87;;;8.03;;
11125;SDS011;5617;54.046;10.676;2023-02-08T11:37:44;11.20;;;7.87;;
11125;SDS011;5617;54.046;10.676;2023-02-08T11:39:54;11.50;;;7.60;;
11125;SDS011;5617;54.046;10.676;2023-02-08T11:42:03;12.97;;;7.90;;
11125;SDS011;5617;54.046;10.676;2023-02-08T11:44:20;12.73;;;8.80;;
11125;SDS011;5617;54.046;10.676;2023-02-08T11:46:31;12.03;;;8.13;;
11125;SDS011;5617;54.046;10.676;2023-02-08T11:48:43;14.20;;;8.20;;
11125;SDS011;5617;54.046;10.676;2023-02-08T11:50:57;12.97;;;8.80;;
11125;SDS011;5617;54.046;10.676;2023-02-08T11:53:06;13.77;;;9.40;;
11125;SDS011;5617;54.046;10.676;2023-02-08T11:55:28;12.80;;;8.80;;
11125;SDS011;5617;54.046;10.676;2023-02-08T11:57:45;12.87;;;8.57;;
11125;SDS011;5617;54.046;10.676;2023-02-08T12:00:11;12.17;;;7.67;;
11125;SDS011;5617;54.046;10.676;2023-02-08T12:02:34;11.87;;;7.80;;
11125;SDS011;5617;54.046;10.676;2023-02-08T12:04:45;12.37;;;7.60;;
11125;SDS011;5617;54.046;10.676;2023-02-08T12:07:05;13.03;;;8.43;;
11125;SDS011;5617;54.046;10.676;2023-02-08T12:09:31;16.00;;;8.67;;
11125;SDS011;5617;54.046;10.676;2023-02-08T12:11:54;13.57;;;8.33;;
11125;SDS011;5617;54.046;10.676;2023-02-08T12:14:25;11.13;;;8.07;;
11125;SDS011;5617;54.046;10.676;2023-02-08T12:16:48;12.30;;;8.57;;
11125;SDS011;5617;54.046;10.676;2023-02-08T12:19:17;13.60;;;8.73;;
11125;SDS011;5617;54.046;10.676;2023-02-08T12:21:39;13.37;;;8.60;;
11125;SDS011;5617;54.046;10.676;2023-02-08T12:23:51;13.53;;;7.90;;
11125;SDS011;5617;54.046;10.676;2023-02-08T12:26:03;10.30;;;7.27;;
11125;SDS011;5617;54.046;10.676;2023-02-08T12:28:20;10.03;;;6.87;;
11125;SDS011;5617;54.046;10.676;2023-02-08T12:30:37;10.17;;;7.17;;
11125;SDS011;5617;54.046;10.676;2023-02-08T12:32:54;10.83;;;7.10;;
11125;SDS011;5617;54.046;10.676;2023-02-08T12:35:19;10.87;;;6.73;;
11125;SDS011;5617;54.046;10.676;2023-02-08T12:37:41;11.13;;;7.27;;
11125;SDS011;5617;54.046;10.676;2023-02-08T12:40:15;11.63;;;7.10;;
11125;SDS011;5617;54.046;10.676;2023-02-08T12:42:53;9.17;;;6.83;;
11125;SDS011;5617;54.046;10.676;2023-02-08T12:47:53;9.63;;;6.30;;
11125;SDS011;5617;54.046;10.676;2023-02-08T12:50:11;11.27;;;7.07;;
11125;SDS011;5617;54.046;10.676;2023-02-08T12:52:27;10.73;;;6.60;;
11125;SDS011;5617;54.046;10.676;2023-02-08T12:54:43;10.50;;;7.07;;